Terminal Aerodrome Forecast
Issued by NWS

Home | Current Version | Previous Version | Text Only | Print | Product List | Glossary On
Versions: 1 2 3 4 5 6 7 8 9 10 11 12 13 14 15 16 17 18
223
FTUS45 KTFX 190531
TAFCTB
TAF
KCTB 190531Z 1906/2006 25019G28KT P6SM SCT090 BKN250
     FM191600 25027G35KT P6SM SCT090 BKN150
     FM200500 26035G45KT P6SM SCT250=

USA.gov is the U.S. government's official web portal to all federal, state and local government web resources and services.